sensor_id;sensor_type;location;lat;lon;timestamp;pressure;altitude;pressure_sealevel;temperature;humidity
13068;BME280;6600;51.362;6.686;2023-05-17T00:02:16;101949.06;;;9.57;99.37
13068;BME280;6600;51.362;6.686;2023-05-17T00:04:41;101950.38;;;9.61;99.34
13068;BME280;6600;51.362;6.686;2023-05-17T00:07:06;101951.75;;;9.57;99.60
13068;BME280;6600;51.362;6.686;2023-05-17T00:09:32;101952.75;;;9.56;99.33
13068;BME280;6600;51.362;6.686;2023-05-17T00:11:57;101949.06;;;9.57;99.74
13068;BME280;6600;51.362;6.686;2023-05-17T00:14:22;101953.38;;;9.58;99.82
13068;BME280;6600;51.362;6.686;2023-05-17T00:16:48;101959.03;;;9.63;99.73
13068;BME280;6600;51.362;6.686;2023-05-17T00:19:13;101960.03;;;9.62;99.58
13068;BME280;6600;51.362;6.686;2023-05-17T00:21:38;101965.59;;;9.61;100.00
13068;BME280;6600;51.362;6.686;2023-05-17T00:24:04;101956.06;;;9.58;100.00
13068;BME280;6600;51.362;6.686;2023-05-17T00:26:29;101961.09;;;9.61;100.00
13068;BME280;6600;51.362;6.686;2023-05-17T00:28:54;101957.72;;;9.59;100.00
13068;BME280;6600;51.362;6.686;2023-05-17T00:31:29;101955.13;;;9.51;100.00
13068;BME280;6600;51.362;6.686;2023-05-17T00:33:55;101961.13;;;9.53;100.00
13068;BME280;6600;51.362;6.686;2023-05-17T00:36:20;101960.50;;;9.51;100.00
13068;BME280;6600;51.362;6.686;2023-05-17T00:38:45;101958.81;;;9.50;100.00
13068;BME280;6600;51.362;6.686;2023-05-17T00:41:11;101961.19;;;9.45;100.00
13068;BME280;6600;51.362;6.686;2023-05-17T00:43:37;101961.53;;;9.42;100.00
13068;BME280;6600;51.362;6.686;2023-05-17T00:46:02;101949.41;;;9.32;100.00
13068;BME280;6600;51.362;6.686;2023-05-17T00:48:28;101957.13;;;9.27;100.00
13068;BME280;6600;51.362;6.686;2023-05-17T00:50:55;101952.63;;;9.27;100.00
13068;BME280;6600;51.362;6.686;2023-05-17T00:53:21;101950.28;;;9.24;100.00
13068;BME280;6600;51.362;6.686;2023-05-17T00:55:47;101954.84;;;9.16;100.00
13068;BME280;6600;51.362;6.686;2023-05-17T00:58:13;101959.72;;;9.12;100.00
13068;BME280;6600;51.362;6.686;2023-05-17T01:00:39;101962.69;;;9.17;100.00
13068;BME280;6600;51.362;6.686;2023-05-17T01:03:04;101963.03;;;9.14;100.00
13068;BME280;6600;51.362;6.686;2023-05-17T01:05:30;101961.03;;;9.16;100.00
13068;BME280;6600;51.362;6.686;2023-05-17T01:07:55;101968.75;;;9.11;100.00
13068;BME280;6600;51.362;6.686;2023-05-17T01:10:35;101961.41;;;9.13;100.00
13068;BME280;6600;51.362;6.686;2023-05-17T01:14:04;101964.09;;;9.05;100.00
13068;BME280;6600;51.362;6.686;2023-05-17T01:16:24;101962.28;;;9.05;100.00
13068;BME280;6600;51.362;6.686;2023-05-17T01:19:15;101964.09;;;9.05;100.00
13068;BME280;6600;51.362;6.686;2023-05-17T01:24:52;101963.47;;;9.03;100.00
13068;BME280;6600;51.362;6.686;2023-05-17T01:27:25;101956.72;;;9.07;100.00
13068;BME280;6600;51.362;6.686;2023-05-17T01:29:54;101961.59;;;9.03;100.00
13068;BME280;6600;51.362;6.686;2023-05-17T01:32:20;101950.13;;;8.95;100.00
13068;BME280;6600;51.362;6.686;2023-05-17T01:34:46;101958.13;;;8.95;100.00
13068;BME280;6600;51.362;6.686;2023-05-17T01:37:11;101958.44;;;9.00;100.00
13068;BME280;6600;51.362;6.686;2023-05-17T01:39:37;101960.97;;;8.93;100.00
13068;BME280;6600;51.362;6.686;2023-05-17T01:42:21;101966.44;;;9.00;100.00
13068;BME280;6600;51.362;6.686;2023-05-17T01:45:05;101965.81;;;8.98;100.00
13068;BME280;6600;51.362;6.686;2023-05-17T01:50:14;101965.16;;;8.96;100.00
13068;BME280;6600;51.362;6.686;2023-05-17T01:52:51;101969.13;;;9.00;100.00
13068;BME280;6600;51.362;6.686;2023-05-17T01:57:54;101972.47;;;9.02;100.00
13068;BME280;6600;51.362;6.686;2023-05-17T02:00:21;101966.44;;;9.00;100.00
13068;BME280;6600;51.362;6.686;2023-05-17T02:02:48;101972.69;;;8.92;100.00
13068;BME280;6600;51.362;6.686;2023-05-17T02:05:13;101974.19;;;8.95;100.00
13068;BME280;6600;51.362;6.686;2023-05-17T02:07:38;101975.53;;;8.91;100.00
13068;BME280;6600;51.362;6.686;2023-05-17T02:10:04;101974.22;;;8.87;100.00
13068;BME280;6600;51.362;6.686;2023-05-17T02:12:29;101971.88;;;8.84;100.00
13068;BME280;6600;51.362;6.686;2023-05-17T02:14:55;101974.75;;;8.82;100.00
13068;BME280;6600;51.362;6.686;2023-05-17T02:17:20;101979.59;;;8.79;100.00
13068;BME280;6600;51.362;6.686;2023-05-17T02:19:45;101970.41;;;8.73;100.00
13068;BME280;6600;51.362;6.686;2023-05-17T02:22:11;101967.44;;;8.68;100.00
13068;BME280;6600;51.362;6.686;2023-05-17T02:24:36;101970.97;;;8.60;100.00
13068;BME280;6600;51.362;6.686;2023-05-17T02:27:01;101977.00;;;8.54;100.00
13068;BME280;6600;51.362;6.686;2023-05-17T02:29:27;101981.38;;;8.47;100.00
13068;BME280;6600;51.362;6.686;2023-05-17T02:31:53;101985.38;;;8.43;100.00
13068;BME280;6600;51.362;6.686;2023-05-17T02:34:18;101982.03;;;8.41;100.00
13068;BME280;6600;51.362;6.686;2023-05-17T02:36:43;101990.38;;;8.38;100.00
13068;BME280;6600;51.362;6.686;2023-05-17T02:39:09;101992.06;;;8.31;100.00
13068;BME280;6600;51.362;6.686;2023-05-17T02:41:34;101997.75;;;8.28;100.00
13068;BME280;6600;51.362;6.686;2023-05-17T02:43:59;101987.38;;;8.25;100.00
13068;BME280;6600;51.362;6.686;2023-05-17T02:46:25;101984.91;;;8.24;100.00
13068;BME280;6600;51.362;6.686;2023-05-17T02:48:50;101981.06;;;8.18;100.00
13068;BME280;6600;51.362;6.686;2023-05-17T02:51:15;101984.06;;;8.15;100.00
13068;BME280;6600;51.362;6.686;2023-05-17T02:53:41;101990.41;;;8.14;100.00
13068;BME280;6600;51.362;6.686;2023-05-17T02:56:06;101995.09;;;8.12;100.00
13068;BME280;6600;51.362;6.686;2023-05-17T02:58:32;102005.09;;;8.10;100.00
13068;BME280;6600;51.362;6.686;2023-05-17T03:00:57;102009.75;;;8.08;100.00
13068;BME280;6600;51.362;6.686;2023-05-17T03:03:23;102011.78;;;8.06;100.00
13068;BME280;6600;51.362;6.686;2023-05-17T03:05:48;102009.09;;;8.06;100.00
13068;BME280;6600;51.362;6.686;2023-05-17T03:08:13;102009.44;;;8.03;100.00
13068;BME280;6600;51.362;6.686;2023-05-17T03:10:39;102009.94;;;8.06;100.00
13068;BME280;6600;51.362;6.686;2023-05-17T03:13:04;102010.44;;;8.10;100.00
13068;BME280;6600;51.362;6.686;2023-05-17T03:15:29;102004.28;;;8.09;100.00
13068;BME280;6600;51.362;6.686;2023-05-17T03:17:55;102003.94;;;8.12;100.00
13068;BME280;6600;51.362;6.686;2023-05-17T03:20:21;102006.94;;;8.09;100.00
13068;BME280;6600;51.362;6.686;2023-05-17T03:22:47;102009.59;;;8.09;100.00
13068;BME280;6600;51.362;6.686;2023-05-17T03:25:12;102009.09;;;8.06;100.00
13068;BME280;6600;51.362;6.686;2023-05-17T03:27:37;102017.28;;;8.04;100.00
13068;BME280;6600;51.362;6.686;2023-05-17T03:30:03;102017.78;;;8.08;100.00
13068;BME280;6600;51.362;6.686;2023-05-17T03:32:28;102017.09;;;8.14;100.00
13068;BME280;6600;51.362;6.686;2023-05-17T03:34:54;102025.78;;;8.16;100.00
13068;BME280;6600;51.362;6.686;2023-05-17T03:37:19;102018.09;;;8.21;100.00
13068;BME280;6600;51.362;6.686;2023-05-17T03:39:44;102021.78;;;8.20;100.00
13068;BME280;6600;51.362;6.686;2023-05-17T03:42:10;102030.78;;;8.27;100.00
13068;BME280;6600;51.362;6.686;2023-05-17T03:44:35;102036.81;;;8.29;100.00
13068;BME280;6600;51.362;6.686;2023-05-17T03:47:00;102032.81;;;8.33;100.00
13068;BME280;6600;51.362;6.686;2023-05-17T03:49:25;102033.81;;;8.40;100.00
13068;BME280;6600;51.362;6.686;2023-05-17T03:51:51;102027.44;;;8.49;100.00
13068;BME280;6600;51.362;6.686;2023-05-17T03:54:16;102030.25;;;8.56;100.00
13068;BME280;6600;51.362;6.686;2023-05-17T03:56:41;102034.75;;;8.63;100.00
13068;BME280;6600;51.362;6.686;2023-05-17T03:59:11;102040.75;;;8.66;100.00
13068;BME280;6600;51.362;6.686;2023-05-17T04:01:37;102039.91;;;8.73;100.00
13068;BME280;6600;51.362;6.686;2023-05-17T04:04:03;102046.41;;;8.79;100.00
13068;BME280;6600;51.362;6.686;2023-05-17T04:06:28;102036.03;;;8.84;100.00
13068;BME280;6600;51.362;6.686;2023-05-17T04:08:54;102037.72;;;8.85;100.00
13068;BME280;6600;51.362;6.686;2023-05-17T04:11:19;102035.34;;;8.90;100.00
13068;BME280;6600;51.362;6.686;2023-05-17T04:13:48;102038.00;;;8.98;100.00
13068;BME280;6600;51.362;6.686;2023-05-17T04:16:13;102041.31;;;9.00;100.00
13068;BME280;6600;51.362;6.686;2023-05-17T04:18:39;102049.00;;;9.03;100.00
13068;BME280;6600;51.362;6.686;2023-05-17T04:21:05;102057.03;;;9.03;100.00
13068;BME280;6600;51.362;6.686;2023-05-17T04:23:31;102054.66;;;9.08;100.00
13068;BME280;6600;51.362;6.686;2023-05-17T04:25:57;102063.00;;;9.13;100.00
13068;BME280;6600;51.362;6.686;2023-05-17T04:28:23;102065.97;;;9.18;100.00
13068;BME280;6600;51.362;6.686;2023-05-17T04:30:49;102064.97;;;9.27;100.00
13068;BME280;6600;51.362;6.686;2023-05-17T04:33:14;102071.13;;;9.28;100.00
13068;BME280;6600;51.362;6.686;2023-05-17T04:35:41;102071.56;;;9.39;100.00
13068;BME280;6600;51.362;6.686;2023-05-17T04:38:07;102073.19;;;9.48;100.00
13068;BME280;6600;51.362;6.686;2023-05-17T04:40:32;102072.50;;;9.54;100.00
13068;BME280;6600;51.362;6.686;2023-05-17T04:42:58;102080.66;;;9.61;100.00
13068;BME280;6600;51.362;6.686;2023-05-17T04:45:23;102076.81;;;9.55;100.00
13068;BME280;6600;51.362;6.686;2023-05-17T04:47:49;102085.53;;;9.57;100.00
13068;BME280;6600;51.362;6.686;2023-05-17T04:50:15;102092.53;;;9.58;100.00
13068;BME280;6600;51.362;6.686;2023-05-17T04:52:41;102086.75;;;9.47;100.00
13068;BME280;6600;51.362;6.686;2023-05-17T04:55:06;102088.81;;;9.68;100.00
13068;BME280;6600;51.362;6.686;2023-05-17T04:57:32;102086.28;;;9.97;100.00
13068;BME280;6600;51.362;6.686;2023-05-17T04:59:57;102103.41;;;10.19;100.00
13068;BME280;6600;51.362;6.686;2023-05-17T05:02:22;102101.84;;;10.24;100.00
13068;BME280;6600;51.362;6.686;2023-05-17T05:04:48;102101.97;;;10.31;100.00
13068;BME280;6600;51.362;6.686;2023-05-17T05:07:13;102113.28;;;10.18;100.00
13068;BME280;6600;51.362;6.686;2023-05-17T05:09:38;102108.50;;;10.28;100.00
13068;BME280;6600;51.362;6.686;2023-05-17T05:12:04;102111.19;;;10.28;100.00
13068;BME280;6600;51.362;6.686;2023-05-17T05:14:29;102123.63;;;10.21;100.00
13068;BME280;6600;51.362;6.686;2023-05-17T05:16:55;102124.06;;;10.02;100.00
13068;BME280;6600;51.362;6.686;2023-05-17T05:19:20;102124.78;;;9.96;100.00
13068;BME280;6600;51.362;6.686;2023-05-17T05:21:46;102129.94;;;9.97;100.00
13068;BME280;6600;51.362;6.686;2023-05-17T05:24:11;102131.88;;;9.89;100.00
13068;BME280;6600;51.362;6.686;2023-05-17T05:26:36;102134.81;;;9.94;100.00
13068;BME280;6600;51.362;6.686;2023-05-17T05:29:02;102133.28;;;10.30;100.00
13068;BME280;6600;51.362;6.686;2023-05-17T05:31:27;102133.16;;;10.46;100.00
13068;BME280;6600;51.362;6.686;2023-05-17T05:33:53;102144.75;;;10.61;100.00
13068;BME280;6600;51.362;6.686;2023-05-17T05:36:18;102139.16;;;10.86;100.00
13068;BME280;6600;51.362;6.686;2023-05-17T05:38:44;102143.72;;;11.14;100.00
13068;BME280;6600;51.362;6.686;2023-05-17T05:41:09;102149.00;;;11.37;100.00
13068;BME280;6600;51.362;6.686;2023-05-17T05:43:34;102154.50;;;11.80;100.00
13068;BME280;6600;51.362;6.686;2023-05-17T05:46:01;102155.09;;;11.60;99.20
13068;BME280;6600;51.362;6.686;2023-05-17T05:48:27;102153.03;;;11.62;98.97
13068;BME280;6600;51.362;6.686;2023-05-17T05:50:52;102151.03;;;11.35;98.80
13068;BME280;6600;51.362;6.686;2023-05-17T05:53:17;102158.78;;;11.45;99.24
13068;BME280;6600;51.362;6.686;2023-05-17T05:55:43;102159.66;;;11.31;98.97
13068;BME280;6600;51.362;6.686;2023-05-17T05:58:08;102160.81;;;11.28;99.32
13068;BME280;6600;51.362;6.686;2023-05-17T06:00:34;102167.50;;;11.32;100.00
13068;BME280;6600;51.362;6.686;2023-05-17T06:02:59;102164.63;;;11.34;100.00
13068;BME280;6600;51.362;6.686;2023-05-17T06:05:25;102171.94;;;11.54;99.54
13068;BME280;6600;51.362;6.686;2023-05-17T06:07:50;102173.50;;;11.78;98.49
13068;BME280;6600;51.362;6.686;2023-05-17T06:10:16;102176.19;;;11.93;96.83
13068;BME280;6600;51.362;6.686;2023-05-17T06:12:41;102180.34;;;11.81;95.39
13068;BME280;6600;51.362;6.686;2023-05-17T06:15:07;102178.34;;;12.04;96.05
13068;BME280;6600;51.362;6.686;2023-05-17T06:17:32;102172.88;;;12.12;94.59
13068;BME280;6600;51.362;6.686;2023-05-17T06:19:58;102183.72;;;12.40;94.34
13068;BME280;6600;51.362;6.686;2023-05-17T06:22:23;102181.59;;;12.56;92.93
13068;BME280;6600;51.362;6.686;2023-05-17T06:24:48;102189.94;;;12.61;91.24
13068;BME280;6600;51.362;6.686;2023-05-17T06:27:14;102179.63;;;12.93;90.74
13068;BME280;6600;51.362;6.686;2023-05-17T06:29:39;102178.84;;;12.99;88.38
13068;BME280;6600;51.362;6.686;2023-05-17T06:32:05;102181.38;;;12.79;87.31
13068;BME280;6600;51.362;6.686;2023-05-17T06:34:30;102178.38;;;12.89;84.44
13068;BME280;6600;51.362;6.686;2023-05-17T06:36:55;102185.59;;;12.88;82.71
13068;BME280;6600;51.362;6.686;2023-05-17T06:39:21;102184.13;;;12.86;81.31
13068;BME280;6600;51.362;6.686;2023-05-17T06:41:46;102191.09;;;12.80;80.52
13068;BME280;6600;51.362;6.686;2023-05-17T06:44:12;102187.19;;;12.83;79.25
13068;BME280;6600;51.362;6.686;2023-05-17T06:46:37;102182.94;;;12.95;78.04
13068;BME280;6600;51.362;6.686;2023-05-17T06:49:02;102203.69;;;13.01;76.28
13068;BME280;6600;51.362;6.686;2023-05-17T06:51:28;102195.44;;;13.02;77.00
13068;BME280;6600;51.362;6.686;2023-05-17T06:53:53;102201.25;;;13.06;77.22
13068;BME280;6600;51.362;6.686;2023-05-17T06:56:19;102201.25;;;13.06;74.55
13068;BME280;6600;51.362;6.686;2023-05-17T06:58:44;102204.78;;;13.34;74.54
13068;BME280;6600;51.362;6.686;2023-05-17T07:01:09;102210.03;;;13.14;75.29
13068;BME280;6600;51.362;6.686;2023-05-17T07:03:35;102207.53;;;12.64;76.08
13068;BME280;6600;51.362;6.686;2023-05-17T07:06:00;102214.09;;;12.83;76.98
13068;BME280;6600;51.362;6.686;2023-05-17T07:08:26;102216.41;;;12.86;75.74
13068;BME280;6600;51.362;6.686;2023-05-17T07:10:51;102214.47;;;13.01;75.02
13068;BME280;6600;51.362;6.686;2023-05-17T07:13:17;102206.72;;;13.12;74.86
13068;BME280;6600;51.362;6.686;2023-05-17T07:15:43;102220.09;;;13.27;75.60
13068;BME280;6600;51.362;6.686;2023-05-17T07:18:08;102222.97;;;13.26;74.27
13068;BME280;6600;51.362;6.686;2023-05-17T07:20:34;102227.59;;;13.38;74.55
13068;BME280;6600;51.362;6.686;2023-05-17T07:22:59;102237.81;;;13.84;74.48
13068;BME280;6600;51.362;6.686;2023-05-17T07:25:25;102233.78;;;13.66;72.66
13068;BME280;6600;51.362;6.686;2023-05-17T07:27:50;102232.91;;;13.59;72.44
13068;BME280;6600;51.362;6.686;2023-05-17T07:30:15;102227.84;;;13.78;73.27
13068;BME280;6600;51.362;6.686;2023-05-17T07:32:41;102233.69;;;13.88;71.75
13068;BME280;6600;51.362;6.686;2023-05-17T07:35:06;102228.50;;;13.93;71.59
13068;BME280;6600;51.362;6.686;2023-05-17T07:37:31;102230.16;;;14.41;72.13
13068;BME280;6600;51.362;6.686;2023-05-17T07:39:57;102233.78;;;14.14;70.60
13068;BME280;6600;51.362;6.686;2023-05-17T07:42:22;102235.75;;;13.86;70.58
13068;BME280;6600;51.362;6.686;2023-05-17T07:44:47;102236.09;;;13.76;72.47
13068;BME280;6600;51.362;6.686;2023-05-17T07:47:14;102235.44;;;13.68;70.73
13068;BME280;6600;51.362;6.686;2023-05-17T07:49:40;102231.81;;;13.47;71.92
13068;BME280;6600;51.362;6.686;2023-05-17T07:52:05;102243.34;;;13.76;70.68
13068;BME280;6600;51.362;6.686;2023-05-17T07:54:31;102238.72;;;14.04;70.79
13068;BME280;6600;51.362;6.686;2023-05-17T07:56:56;102243.06;;;13.98;69.97
13068;BME280;6600;51.362;6.686;2023-05-17T07:59:22;102247.22;;;13.60;70.16
13068;BME280;6600;51.362;6.686;2023-05-17T08:01:47;102249.72;;;13.61;70.67
13068;BME280;6600;51.362;6.686;2023-05-17T08:04:13;102253.34;;;13.47;71.18
13068;BME280;6600;51.362;6.686;2023-05-17T08:06:39;102262.53;;;13.59;72.13
13068;BME280;6600;51.362;6.686;2023-05-17T08:09:05;102255.91;;;13.62;71.42
13068;BME280;6600;51.362;6.686;2023-05-17T08:11:30;102251.94;;;13.51;71.88
13068;BME280;6600;51.362;6.686;2023-05-17T08:13:57;102245.31;;;13.26;72.92
13068;BME280;6600;51.362;6.686;2023-05-17T08:16:23;102252.13;;;12.80;74.88
13068;BME280;6600;51.362;6.686;2023-05-17T08:18:48;102255.09;;;13.06;74.13
13068;BME280;6600;51.362;6.686;2023-05-17T08:21:13;102256.97;;;13.33;74.46
13068;BME280;6600;51.362;6.686;2023-05-17T08:23:39;102256.59;;;13.71;71.28
13068;BME280;6600;51.362;6.686;2023-05-17T08:26:05;102258.56;;;13.90;68.91
13068;BME280;6600;51.362;6.686;2023-05-17T08:28:30;102255.28;;;14.01;67.92
13068;BME280;6600;51.362;6.686;2023-05-17T08:30:56;102260.75;;;14.21;67.20
13068;BME280;6600;51.362;6.686;2023-05-17T08:33:22;102261.09;;;14.52;67.22
13068;BME280;6600;51.362;6.686;2023-05-17T08:35:50;102267.06;;;14.34;66.06
13068;BME280;6600;51.362;6.686;2023-05-17T08:38:17;102268.81;;;14.61;65.26
13068;BME280;6600;51.362;6.686;2023-05-17T08:40:42;102268.50;;;14.30;64.43
13068;BME280;6600;51.362;6.686;2023-05-17T08:43:10;102265.06;;;14.69;65.98
13068;BME280;6600;51.362;6.686;2023-05-17T08:45:37;102268.84;;;14.88;65.29
13068;BME280;6600;51.362;6.686;2023-05-17T08:48:03;102261.16;;;14.85;65.36
13068;BME280;6600;51.362;6.686;2023-05-17T08:50:30;102272.19;;;15.09;66.36
13068;BME280;6600;51.362;6.686;2023-05-17T08:52:58;102275.50;;;14.79;66.09
13068;BME280;6600;51.362;6.686;2023-05-17T08:55:25;102279.84;;;14.19;67.56
13068;BME280;6600;51.362;6.686;2023-05-17T08:57:52;102286.38;;;13.97;68.24
13068;BME280;6600;51.362;6.686;2023-05-17T09:00:20;102274.31;;;13.58;68.36
13068;BME280;6600;51.362;6.686;2023-05-17T09:02:46;102273.66;;;13.22;68.53
13068;BME280;6600;51.362;6.686;2023-05-17T09:05:14;102274.09;;;13.53;69.23
13068;BME280;6600;51.362;6.686;2023-05-17T09:07:40;102277.13;;;13.72;67.39
13068;BME280;6600;51.362;6.686;2023-05-17T09:10:07;102272.31;;;14.08;66.91
13068;BME280;6600;51.362;6.686;2023-05-17T09:12:33;102284.03;;;14.28;64.85
13068;BME280;6600;51.362;6.686;2023-05-17T09:15:15;102282.91;;;14.50;65.88
13068;BME280;6600;51.362;6.686;2023-05-17T09:17:41;102285.78;;;14.55;64.32
13068;BME280;6600;51.362;6.686;2023-05-17T09:20:07;102285.03;;;14.75;64.70
13068;BME280;6600;51.362;6.686;2023-05-17T09:22:34;102275.50;;;14.79;65.64
13068;BME280;6600;51.362;6.686;2023-05-17T09:25:00;102275.88;;;14.76;65.26
13068;BME280;6600;51.362;6.686;2023-05-17T09:27:29;102283.78;;;14.84;67.70
13068;BME280;6600;51.362;6.686;2023-05-17T09:29:55;102283.00;;;15.03;65.17
13068;BME280;6600;51.362;6.686;2023-05-17T09:32:21;102282.56;;;15.26;64.08
13068;BME280;6600;51.362;6.686;2023-05-17T09:34:46;102275.31;;;15.26;61.96
13068;BME280;6600;51.362;6.686;2023-05-17T09:37:14;102284.25;;;15.53;62.14
13068;BME280;6600;51.362;6.686;2023-05-17T09:39:40;102273.41;;;15.07;60.12
13068;BME280;6600;51.362;6.686;2023-05-17T09:42:06;102287.56;;;15.09;62.15
13068;BME280;6600;51.362;6.686;2023-05-17T09:44:50;102277.97;;;15.65;62.07
13068;BME280;6600;51.362;6.686;2023-05-17T09:47:23;102282.06;;;15.94;62.27
13068;BME280;6600;51.362;6.686;2023-05-17T09:49:49;102281.69;;;15.78;61.08
13068;BME280;6600;51.362;6.686;2023-05-17T09:52:19;102280.84;;;15.84;63.16
13068;BME280;6600;51.362;6.686;2023-05-17T09:54:55;102278.00;;;15.52;62.01
13068;BME280;6600;51.362;6.686;2023-05-17T09:57:22;102275.50;;;15.18;62.74
13068;BME280;6600;51.362;6.686;2023-05-17T09:59:48;102275.72;;;15.36;63.15
13068;BME280;6600;51.362;6.686;2023-05-17T10:02:19;102282.78;;;15.17;60.49
13068;BME280;6600;51.362;6.686;2023-05-17T10:04:47;102276.34;;;15.25;61.27
13068;BME280;6600;51.362;6.686;2023-05-17T10:07:17;102273.44;;;15.20;61.07
13068;BME280;6600;51.362;6.686;2023-05-17T10:09:45;102270.03;;;15.84;61.16
13068;BME280;6600;51.362;6.686;2023-05-17T10:12:13;102271.97;;;15.63;58.40
13068;BME280;6600;51.362;6.686;2023-05-17T10:14:41;102271.31;;;15.75;59.88
13068;BME280;6600;51.362;6.686;2023-05-17T10:17:08;102262.97;;;15.76;57.83
13068;BME280;6600;51.362;6.686;2023-05-17T10:19:35;102267.38;;;15.71;58.18
13068;BME280;6600;51.362;6.686;2023-05-17T10:22:01;102276.91;;;15.80;58.67
13068;BME280;6600;51.362;6.686;2023-05-17T10:24:27;102270.50;;;15.68;59.94
13068;BME280;6600;51.362;6.686;2023-05-17T10:26:55;102274.06;;;15.22;63.09
13068;BME280;6600;51.362;6.686;2023-05-17T10:29:22;102268.03;;;15.20;63.73
13068;BME280;6600;51.362;6.686;2023-05-17T10:31:48;102264.28;;;15.34;64.48
13068;BME280;6600;51.362;6.686;2023-05-17T10:34:15;102275.09;;;15.21;63.46
13068;BME280;6600;51.362;6.686;2023-05-17T10:36:45;102257.63;;;15.17;62.94
13068;BME280;6600;51.362;6.686;2023-05-17T10:39:12;102262.19;;;14.90;62.79
13068;BME280;6600;51.362;6.686;2023-05-17T10:41:41;102263.03;;;15.10;62.46
13068;BME280;6600;51.362;6.686;2023-05-17T10:44:08;102260.16;;;14.86;61.38
13068;BME280;6600;51.362;6.686;2023-05-17T10:46:36;102261.75;;;14.60;61.22
13068;BME280;6600;51.362;6.686;2023-05-17T10:49:02;102264.44;;;14.60;60.72
13068;BME280;6600;51.362;6.686;2023-05-17T10:51:32;102260.94;;;14.80;59.05
13068;BME280;6600;51.362;6.686;2023-05-17T10:56:30;102253.47;;;15.28;58.95
13068;BME280;6600;51.362;6.686;2023-05-17T11:01:57;102254.72;;;15.64;57.36
13068;BME280;6600;51.362;6.686;2023-05-17T11:04:25;102252.78;;;15.85;58.69
13068;BME280;6600;51.362;6.686;2023-05-17T11:06:53;102252.44;;;16.19;58.61
13068;BME280;6600;51.362;6.686;2023-05-17T11:09:21;102248.66;;;16.27;60.01
13068;BME280;6600;51.362;6.686;2023-05-17T11:12:05;102245.59;;;16.54;61.48
13068;BME280;6600;51.362;6.686;2023-05-17T11:14:53;102240.13;;;16.67;60.75
13068;BME280;6600;51.362;6.686;2023-05-17T11:17:20;102242.38;;;16.33;60.28
13068;BME280;6600;51.362;6.686;2023-05-17T11:19:59;102238.72;;;15.56;61.24
13068;BME280;6600;51.362;6.686;2023-05-17T11:22:26;102250.97;;;15.59;60.55
13068;BME280;6600;51.362;6.686;2023-05-17T11:24:55;102244.34;;;15.61;58.91
13068;BME280;6600;51.362;6.686;2023-05-17T11:27:21;102252.56;;;15.80;57.59
13068;BME280;6600;51.362;6.686;2023-05-17T11:29:54;102248.34;;;15.97;57.14
13068;BME280;6600;51.362;6.686;2023-05-17T11:32:27;102239.94;;;16.18;58.62
13068;BME280;6600;51.362;6.686;2023-05-17T11:34:53;102236.22;;;16.19;58.50
13068;BME280;6600;51.362;6.686;2023-05-17T11:37:28;102238.94;;;15.48;60.27
13068;BME280;6600;51.362;6.686;2023-05-17T11:40:06;102248.06;;;15.47;62.54
13068;BME280;6600;51.362;6.686;2023-05-17T11:42:33;102247.03;;;15.61;60.56
13068;BME280;6600;51.362;6.686;2023-05-17T11:45:00;102245.47;;;15.92;59.27
13068;BME280;6600;51.362;6.686;2023-05-17T11:47:26;102239.28;;;15.85;58.29
13068;BME280;6600;51.362;6.686;2023-05-17T11:49:53;102242.50;;;16.13;57.11
13068;BME280;6600;51.362;6.686;2023-05-17T11:52:18;102247.91;;;16.13;58.66
13068;BME280;6600;51.362;6.686;2023-05-17T11:54:44;102239.88;;;15.87;57.53
13068;BME280;6600;51.362;6.686;2023-05-17T11:57:12;102251.13;;;16.28;56.91
13068;BME280;6600;51.362;6.686;2023-05-17T11:59:40;102248.94;;;16.12;55.48
13068;BME280;6600;51.362;6.686;2023-05-17T12:02:07;102248.72;;;16.07;57.04
13068;BME280;6600;51.362;6.686;2023-05-17T12:04:35;102251.34;;;16.33;56.02
13068;BME280;6600;51.362;6.686;2023-05-17T12:07:04;102246.97;;;16.32;55.34
13068;BME280;6600;51.362;6.686;2023-05-17T12:09:32;102251.44;;;16.58;53.11
13068;BME280;6600;51.362;6.686;2023-05-17T12:11:57;102246.03;;;16.58;54.08
13068;BME280;6600;51.362;6.686;2023-05-17T12:14:28;102243.47;;;16.63;54.75
13068;BME280;6600;51.362;6.686;2023-05-17T12:16:55;102243.06;;;16.59;52.19
13068;BME280;6600;51.362;6.686;2023-05-17T12:19:23;102236.78;;;16.65;54.94
13068;BME280;6600;51.362;6.686;2023-05-17T12:21:50;102246.88;;;16.45;55.34
13068;BME280;6600;51.362;6.686;2023-05-17T12:24:16;102242.78;;;16.36;55.34
13068;BME280;6600;51.362;6.686;2023-05-17T12:26:42;102244.41;;;16.44;55.67
13068;BME280;6600;51.362;6.686;2023-05-17T12:29:11;102238.91;;;16.63;57.00
13068;BME280;6600;51.362;6.686;2023-05-17T12:31:47;102242.88;;;16.54;55.03
13068;BME280;6600;51.362;6.686;2023-05-17T12:34:13;102234.81;;;16.79;53.28
13068;BME280;6600;51.362;6.686;2023-05-17T12:36:41;102239.81;;;17.07;54.55
13068;BME280;6600;51.362;6.686;2023-05-17T12:39:08;102229.09;;;16.94;53.98
13068;BME280;6600;51.362;6.686;2023-05-17T12:41:35;102237.53;;;16.79;55.20
13068;BME280;6600;51.362;6.686;2023-05-17T12:44:03;102229.84;;;16.38;56.18
13068;BME280;6600;51.362;6.686;2023-05-17T12:46:30;102226.84;;;16.53;55.72
13068;BME280;6600;51.362;6.686;2023-05-17T12:49:00;102232.75;;;16.43;54.28
13068;BME280;6600;51.362;6.686;2023-05-17T12:51:38;102231.91;;;16.05;55.51
13068;BME280;6600;51.362;6.686;2023-05-17T12:54:04;102233.38;;;16.01;57.35
13068;BME280;6600;51.362;6.686;2023-05-17T12:56:29;102232.84;;;15.73;56.58
13068;BME280;6600;51.362;6.686;2023-05-17T13:04:06;102234.75;;;16.23;55.89
13068;BME280;6600;51.362;6.686;2023-05-17T13:06:51;102234.97;;;16.15;54.37
13068;BME280;6600;51.362;6.686;2023-05-17T13:09:18;102238.53;;;16.15;55.89
13068;BME280;6600;51.362;6.686;2023-05-17T13:12:02;102231.41;;;16.59;54.51
13068;BME280;6600;51.362;6.686;2023-05-17T13:14:42;102225.97;;;16.65;53.16
13068;BME280;6600;51.362;6.686;2023-05-17T13:17:09;102231.72;;;16.76;53.92
13068;BME280;6600;51.362;6.686;2023-05-17T13:19:35;102239.03;;;16.37;53.27